sensor_id;sensor_type;location;lat;lon;timestamp;pressure;altitude;pressure_sealevel;temperature;humidity
49945;BME280;35838;49.134;9.212;2023-01-20T00:01:29;99305.22;;;1.23;89.82
49945;BME280;35838;49.134;9.212;2023-01-20T00:03:03;99309.38;;;1.19;89.96
49945;BME280;35838;49.134;9.212;2023-01-20T00:04:34;99300.81;;;1.17;90.07
49945;BME280;35838;49.134;9.212;2023-01-20T00:06:08;99309.31;;;1.16;90.20
49945;BME280;35838;49.134;9.212;2023-01-20T00:07:41;99307.69;;;1.18;90.57
49945;BME280;35838;49.134;9.212;2023-01-20T00:09:15;99308.50;;;1.17;90.77
49945;BME280;35838;49.134;9.212;2023-01-20T00:10:49;99305.94;;;1.17;90.69
49945;BME280;35838;49.134;9.212;2023-01-20T00:12:23;99303.31;;;1.14;90.92
49945;BME280;35838;49.134;9.212;2023-01-20T00:13:59;99309.31;;;1.16;91.14
49945;BME280;35838;49.134;9.212;2023-01-20T00:15:31;99312.63;;;1.12;91.18
49945;BME280;35838;49.134;9.212;2023-01-20T00:17:04;99316.88;;;1.12;91.16
49945;BME280;35838;49.134;9.212;2023-01-20T00:18:38;99315.94;;;1.08;90.92
49945;BME280;35838;49.134;9.212;2023-01-20T00:20:12;99311.56;;;1.04;91.12
49945;BME280;35838;49.134;9.212;2023-01-20T00:21:46;99316.63;;;1.01;91.46
49945;BME280;35838;49.134;9.212;2023-01-20T00:23:19;99314.81;;;0.97;91.47
49945;BME280;35838;49.134;9.212;2023-01-20T00:24:50;99317.44;;;1.00;91.80
49945;BME280;35838;49.134;9.212;2023-01-20T00:26:24;99314.88;;;1.00;91.68
49945;BME280;35838;49.134;9.212;2023-01-20T00:27:58;99320.72;;;0.96;91.75
49945;BME280;35838;49.134;9.212;2023-01-20T00:29:34;99319.88;;;0.95;91.99
49945;BME280;35838;49.134;9.212;2023-01-20T00:31:08;99323.31;;;0.97;92.09
49945;BME280;35838;49.134;9.212;2023-01-20T00:32:42;99316.63;;;1.01;92.06
49945;BME280;35838;49.134;9.212;2023-01-20T00:34:16;99325.09;;;1.00;91.71
49945;BME280;35838;49.134;9.212;2023-01-20T00:35:50;99324.81;;;0.89;91.92
49945;BME280;35838;49.134;9.212;2023-01-20T00:37:23;99329.41;;;1.01;91.86
49945;BME280;35838;49.134;9.212;2023-01-20T00:38:57;99329.22;;;0.94;92.02
49945;BME280;35838;49.134;9.212;2023-01-20T00:40:31;99320.69;;;0.94;91.96
49945;BME280;35838;49.134;9.212;2023-01-20T00:42:04;99334.41;;;0.98;91.92
49945;BME280;35838;49.134;9.212;2023-01-20T00:43:38;99326.78;;;0.99;91.84
49945;BME280;35838;49.134;9.212;2023-01-20T00:45:12;99335.28;;;0.98;91.66
49945;BME280;35838;49.134;9.212;2023-01-20T00:46:45;99339.38;;;0.91;91.53
49945;BME280;35838;49.134;9.212;2023-01-20T00:48:19;99338.50;;;0.91;91.44
49945;BME280;35838;49.134;9.212;2023-01-20T00:49:53;99335.03;;;0.89;91.66
49945;BME280;35838;49.134;9.212;2023-01-20T00:51:26;99345.25;;;0.89;91.69
49945;BME280;35838;49.134;9.212;2023-01-20T00:53:00;99342.75;;;0.90;91.55
49945;BME280;35838;49.134;9.212;2023-01-20T00:54:33;99345.34;;;0.92;91.61
49945;BME280;35838;49.134;9.212;2023-01-20T00:56:07;99345.44;;;0.95;91.24
49945;BME280;35838;49.134;9.212;2023-01-20T00:57:40;99348.72;;;0.91;91.30
49945;BME280;35838;49.134;9.212;2023-01-20T00:59:11;99354.63;;;0.88;91.27
49945;BME280;35838;49.134;9.212;2023-01-20T01:00:48;99344.50;;;0.91;91.11
49945;BME280;35838;49.134;9.212;2023-01-20T01:02:19;99354.63;;;0.88;91.14
49945;BME280;35838;49.134;9.212;2023-01-20T01:03:53;99355.34;;;0.84;91.09
49945;BME280;35838;49.134;9.212;2023-01-20T01:05:26;99365.50;;;0.81;91.21
49945;BME280;35838;49.134;9.212;2023-01-20T01:06:57;99364.50;;;0.76;91.76
49945;BME280;35838;49.134;9.212;2023-01-20T01:08:31;99363.88;;;0.83;91.82
49945;BME280;35838;49.134;9.212;2023-01-20T01:10:05;99369.03;;;0.86;91.68
49945;BME280;35838;49.134;9.212;2023-01-20T01:11:39;99370.63;;;0.81;91.37
49945;BME280;35838;49.134;9.212;2023-01-20T01:13:13;99377.47;;;0.82;91.64
49945;BME280;35838;49.134;9.212;2023-01-20T01:14:44;99370.50;;;0.76;91.86
49945;BME280;35838;49.134;9.212;2023-01-20T01:16:20;99374.91;;;0.82;91.85
49945;BME280;35838;49.134;9.212;2023-01-20T01:17:54;99377.59;;;0.87;91.47
49945;BME280;35838;49.134;9.212;2023-01-20T01:19:43;99376.66;;;0.83;91.56
49945;BME280;35838;49.134;9.212;2023-01-20T01:22:50;99382.69;;;0.87;91.62
49945;BME280;35838;49.134;9.212;2023-01-20T01:24:24;99378.47;;;0.89;91.68
49945;BME280;35838;49.134;9.212;2023-01-20T01:25:57;99387.03;;;0.89;91.12
49945;BME280;35838;49.134;9.212;2023-01-20T01:27:31;99387.81;;;0.87;90.91
49945;BME280;35838;49.134;9.212;2023-01-20T01:29:04;99388.50;;;0.81;91.16
49945;BME280;35838;49.134;9.212;2023-01-20T01:30:38;99388.34;;;0.75;91.61
49945;BME280;35838;49.134;9.212;2023-01-20T01:32:11;99391.88;;;0.80;92.04
49945;BME280;35838;49.134;9.212;2023-01-20T01:33:45;99392.72;;;0.81;91.75
49945;BME280;35838;49.134;9.212;2023-01-20T01:35:19;99394.53;;;0.83;91.55
49945;BME280;35838;49.134;9.212;2023-01-20T01:36:50;99399.63;;;0.83;91.32
49945;BME280;35838;49.134;9.212;2023-01-20T01:38:23;99400.63;;;0.88;91.30
49945;BME280;35838;49.134;9.212;2023-01-20T01:39:57;99398.03;;;0.87;90.78
49945;BME280;35838;49.134;9.212;2023-01-20T01:41:31;99408.84;;;0.78;91.09
49945;BME280;35838;49.134;9.212;2023-01-20T01:43:08;99403.84;;;0.81;91.22
49945;BME280;35838;49.134;9.212;2023-01-20T01:46:28;99409.88;;;0.85;90.73
49945;BME280;35838;49.134;9.212;2023-01-20T01:48:06;99415.13;;;0.89;90.80
49945;BME280;35838;49.134;9.212;2023-01-20T01:49:41;99414.34;;;0.92;90.75
49945;BME280;35838;49.134;9.212;2023-01-20T01:51:12;99415.03;;;0.86;90.68
49945;BME280;35838;49.134;9.212;2023-01-20T01:52:48;99416.88;;;0.90;90.71
49945;BME280;35838;49.134;9.212;2023-01-20T01:54:23;99414.38;;;0.93;90.63
49945;BME280;35838;49.134;9.212;2023-01-20T01:55:59;99411.81;;;0.93;90.43
49945;BME280;35838;49.134;9.212;2023-01-20T01:57:34;99411.00;;;0.94;90.44
49945;BME280;35838;49.134;9.212;2023-01-20T01:59:07;99412.41;;;0.83;89.98
49945;BME280;35838;49.134;9.212;2023-01-20T02:00:41;99410.13;;;0.94;89.83
49945;BME280;35838;49.134;9.212;2023-01-20T02:02:12;99411.75;;;0.90;90.15
49945;BME280;35838;49.134;9.212;2023-01-20T02:03:50;99417.69;;;0.89;90.19
49945;BME280;35838;49.134;9.212;2023-01-20T02:05:27;99417.03;;;0.97;90.01
49945;BME280;35838;49.134;9.212;2023-01-20T02:07:01;99418.84;;;1.01;89.99
49945;BME280;35838;49.134;9.212;2023-01-20T02:08:35;99416.19;;;0.98;90.33
49945;BME280;35838;49.134;9.212;2023-01-20T02:10:07;99414.63;;;1.03;89.89
49945;BME280;35838;49.134;9.212;2023-01-20T02:11:42;99421.41;;;1.01;90.14
49945;BME280;35838;49.134;9.212;2023-01-20T02:13:18;99424.72;;;0.98;90.20
49945;BME280;35838;49.134;9.212;2023-01-20T02:14:52;99426.41;;;0.98;90.24
49945;BME280;35838;49.134;9.212;2023-01-20T02:16:29;99423.03;;;0.99;90.28
49945;BME280;35838;49.134;9.212;2023-01-20T02:18:17;99423.97;;;1.01;90.62
49945;BME280;35838;49.134;9.212;2023-01-20T02:20:09;99427.53;;;1.07;90.53
49945;BME280;35838;49.134;9.212;2023-01-20T02:21:56;99424.13;;;1.07;90.40
49945;BME280;35838;49.134;9.212;2023-01-20T02:23:39;99418.00;;;1.02;90.50
49945;BME280;35838;49.134;9.212;2023-01-20T02:25:21;99417.25;;;1.04;90.50
49945;BME280;35838;49.134;9.212;2023-01-20T02:27:04;99419.56;;;0.97;90.28
49945;BME280;35838;49.134;9.212;2023-01-20T02:28:50;99418.84;;;1.01;90.58
49945;BME280;35838;49.134;9.212;2023-01-20T02:30:33;99425.72;;;1.03;90.88
49945;BME280;35838;49.134;9.212;2023-01-20T02:32:12;99426.50;;;1.01;91.09
49945;BME280;35838;49.134;9.212;2023-01-20T02:33:50;99431.63;;;1.01;90.64
49945;BME280;35838;49.134;9.212;2023-01-20T02:35:28;99429.91;;;1.01;90.23
49945;BME280;35838;49.134;9.212;2023-01-20T02:37:05;99424.78;;;1.00;89.70
49945;BME280;35838;49.134;9.212;2023-01-20T02:38:44;99430.63;;;0.96;89.67
49945;BME280;35838;49.134;9.212;2023-01-20T02:40:23;99424.56;;;0.92;89.86
49945;BME280;35838;49.134;9.212;2023-01-20T02:41:59;99426.31;;;0.94;90.21
49945;BME280;35838;49.134;9.212;2023-01-20T02:43:35;99425.66;;;1.02;90.15
49945;BME280;35838;49.134;9.212;2023-01-20T02:45:13;99433.88;;;0.90;90.21
49945;BME280;35838;49.134;9.212;2023-01-20T02:46:49;99429.78;;;0.97;90.30
49945;BME280;35838;49.134;9.212;2023-01-20T02:48:27;99431.63;;;1.01;90.31
49945;BME280;35838;49.134;9.212;2023-01-20T02:50:03;99438.44;;;1.02;90.46
49945;BME280;35838;49.134;9.212;2023-01-20T02:51:41;99439.28;;;1.01;90.57
49945;BME280;35838;49.134;9.212;2023-01-20T02:53:16;99436.00;;;1.06;90.69
49945;BME280;35838;49.134;9.212;2023-01-20T02:54:52;99441.22;;;1.09;90.61
49945;BME280;35838;49.134;9.212;2023-01-20T02:56:27;99437.63;;;1.03;90.57
49945;BME280;35838;49.134;9.212;2023-01-20T02:58:02;99447.84;;;1.03;90.62
49945;BME280;35838;49.134;9.212;2023-01-20T02:59:37;99448.66;;;1.02;90.57
49945;BME280;35838;49.134;9.212;2023-01-20T03:01:16;99444.31;;;0.98;90.71
49945;BME280;35838;49.134;9.212;2023-01-20T03:02:52;99449.56;;;1.04;90.63
49945;BME280;35838;49.134;9.212;2023-01-20T03:04:30;99447.91;;;1.04;90.70
49945;BME280;35838;49.134;9.212;2023-01-20T03:06:07;99453.72;;;0.99;91.02
49945;BME280;35838;49.134;9.212;2023-01-20T03:07:43;99451.09;;;0.97;90.90
49945;BME280;35838;49.134;9.212;2023-01-20T03:09:16;99452.78;;;0.97;90.93
49945;BME280;35838;49.134;9.212;2023-01-20T03:10:50;99460.56;;;1.00;90.88
49945;BME280;35838;49.134;9.212;2023-01-20T03:12:28;99460.38;;;0.93;90.61
49945;BME280;35838;49.134;9.212;2023-01-20T03:14:04;99463.00;;;0.95;90.67
49945;BME280;35838;49.134;9.212;2023-01-20T03:15:42;99459.53;;;0.94;90.48
49945;BME280;35838;49.134;9.212;2023-01-20T03:17:17;99457.09;;;0.98;90.26
49945;BME280;35838;49.134;9.212;2023-01-20T03:18:51;99461.16;;;0.91;90.62
49945;BME280;35838;49.134;9.212;2023-01-20T03:20:27;99467.16;;;0.91;90.38
49945;BME280;35838;49.134;9.212;2023-01-20T03:22:01;99466.41;;;0.96;90.39
49945;BME280;35838;49.134;9.212;2023-01-20T03:23:36;99462.09;;;0.94;90.32
49945;BME280;35838;49.134;9.212;2023-01-20T03:25:09;99466.31;;;0.92;89.97
49945;BME280;35838;49.134;9.212;2023-01-20T03:26:43;99472.13;;;0.87;90.20
49945;BME280;35838;49.134;9.212;2023-01-20T03:28:17;99472.25;;;0.91;90.23
49945;BME280;35838;49.134;9.212;2023-01-20T03:29:48;99471.66;;;1.02;90.23
49945;BME280;35838;49.134;9.212;2023-01-20T03:31:22;99475.06;;;1.01;90.18
49945;BME280;35838;49.134;9.212;2023-01-20T03:32:57;99477.53;;;0.98;90.46
49945;BME280;35838;49.134;9.212;2023-01-20T03:34:32;99472.03;;;0.84;90.91
49945;BME280;35838;49.134;9.212;2023-01-20T03:36:09;99473.13;;;0.92;90.76
49945;BME280;35838;49.134;9.212;2023-01-20T03:37:44;99475.69;;;0.93;90.91
49945;BME280;35838;49.134;9.212;2023-01-20T03:39:15;99469.59;;;0.88;91.07
49945;BME280;35838;49.134;9.212;2023-01-20T03:42:40;99477.94;;;0.81;91.59
49945;BME280;35838;49.134;9.212;2023-01-20T03:44:18;99481.16;;;0.75;92.06
49945;BME280;35838;49.134;9.212;2023-01-20T03:45:51;99473.50;;;0.75;92.53
49945;BME280;35838;49.134;9.212;2023-01-20T03:47:29;99477.63;;;0.70;92.63
49945;BME280;35838;49.134;9.212;2023-01-20T03:49:12;99480.22;;;0.72;92.58
49945;BME280;35838;49.134;9.212;2023-01-20T03:50:51;99479.25;;;0.68;92.90
49945;BME280;35838;49.134;9.212;2023-01-20T03:52:30;99486.03;;;0.68;93.29
49945;BME280;35838;49.134;9.212;2023-01-20T03:54:07;99486.88;;;0.67;93.39
49945;BME280;35838;49.134;9.212;2023-01-20T03:55:43;99486.84;;;0.65;93.35
49945;BME280;35838;49.134;9.212;2023-01-20T03:57:20;99488.44;;;0.61;93.64
49945;BME280;35838;49.134;9.212;2023-01-20T03:58:54;99488.47;;;0.63;93.64
49945;BME280;35838;49.134;9.212;2023-01-20T04:00:30;99486.69;;;0.60;93.86
49945;BME280;35838;49.134;9.212;2023-01-20T04:02:06;99492.59;;;0.58;94.06
49945;BME280;35838;49.134;9.212;2023-01-20T04:03:41;99494.31;;;0.59;94.19
49945;BME280;35838;49.134;9.212;2023-01-20T04:05:16;99497.00;;;0.64;93.96
49945;BME280;35838;49.134;9.212;2023-01-20T04:06:49;99495.38;;;0.66;94.11
49945;BME280;35838;49.134;9.212;2023-01-20T04:08:27;99504.84;;;0.70;93.97
49945;BME280;35838;49.134;9.212;2023-01-20T04:10:03;99502.97;;;0.64;93.76
49945;BME280;35838;49.134;9.212;2023-01-20T04:11:38;99505.38;;;0.59;93.59
49945;BME280;35838;49.134;9.212;2023-01-20T04:13:12;99504.81;;;0.68;93.71
49945;BME280;35838;49.134;9.212;2023-01-20T04:14:46;99508.16;;;0.66;93.29
49945;BME280;35838;49.134;9.212;2023-01-20T04:16:20;99510.88;;;0.72;93.18
49945;BME280;35838;49.134;9.212;2023-01-20T04:17:54;99500.56;;;0.69;92.99
49945;BME280;35838;49.134;9.212;2023-01-20T04:19:28;99507.50;;;0.73;93.05
49945;BME280;35838;49.134;9.212;2023-01-20T04:21:01;99512.66;;;0.74;93.03
49945;BME280;35838;49.134;9.212;2023-01-20T04:22:37;99510.97;;;0.75;92.46
49945;BME280;35838;49.134;9.212;2023-01-20T04:24:16;99518.38;;;0.66;92.50
49945;BME280;35838;49.134;9.212;2023-01-20T04:25:53;99525.19;;;0.67;92.72
49945;BME280;35838;49.134;9.212;2023-01-20T04:27:27;99516.81;;;0.71;93.10
49945;BME280;35838;49.134;9.212;2023-01-20T04:29:01;99521.19;;;0.75;93.25
49945;BME280;35838;49.134;9.212;2023-01-20T04:30:38;99521.38;;;0.81;93.35
49945;BME280;35838;49.134;9.212;2023-01-20T04:32:11;99521.44;;;0.84;93.02
49945;BME280;35838;49.134;9.212;2023-01-20T04:33:45;99524.06;;;0.86;92.83
49945;BME280;35838;49.134;9.212;2023-01-20T04:35:19;99525.72;;;0.85;92.58
49945;BME280;35838;49.134;9.212;2023-01-20T04:36:52;99530.00;;;0.86;92.75
49945;BME280;35838;49.134;9.212;2023-01-20T04:38:26;99530.84;;;0.85;92.48
49945;BME280;35838;49.134;9.212;2023-01-20T04:40:00;99527.41;;;0.83;92.55
49945;BME280;35838;49.134;9.212;2023-01-20T04:41:33;99529.16;;;0.86;92.58
49945;BME280;35838;49.134;9.212;2023-01-20T04:43:07;99532.78;;;0.92;92.34
49945;BME280;35838;49.134;9.212;2023-01-20T04:44:41;99527.47;;;0.86;92.33
49945;BME280;35838;49.134;9.212;2023-01-20T04:46:13;99536.06;;;0.90;92.36
49945;BME280;35838;49.134;9.212;2023-01-20T04:47:47;99537.91;;;0.94;92.40
49945;BME280;35838;49.134;9.212;2023-01-20T04:49:20;99532.81;;;0.94;92.26
49945;BME280;35838;49.134;9.212;2023-01-20T04:50:54;99537.13;;;0.97;92.20
49945;BME280;35838;49.134;9.212;2023-01-20T04:52:27;99532.19;;;1.03;92.05
49945;BME280;35838;49.134;9.212;2023-01-20T04:54:01;99535.41;;;0.96;91.68
49945;BME280;35838;49.134;9.212;2023-01-20T04:55:37;99538.78;;;0.94;92.30
49945;BME280;35838;49.134;9.212;2023-01-20T04:57:11;99537.16;;;0.98;92.43
49945;BME280;35838;49.134;9.212;2023-01-20T04:58:46;99540.66;;;1.02;92.24
49945;BME280;35838;49.134;9.212;2023-01-20T05:00:20;99546.66;;;1.02;92.16
49945;BME280;35838;49.134;9.212;2023-01-20T05:01:51;99543.31;;;1.05;92.29
49945;BME280;35838;49.134;9.212;2023-01-20T05:03:25;99551.00;;;1.05;92.25
49945;BME280;35838;49.134;9.212;2023-01-20T05:04:58;99552.56;;;1.00;92.26
49945;BME280;35838;49.134;9.212;2023-01-20T05:06:32;99559.31;;;0.98;92.57
49945;BME280;35838;49.134;9.212;2023-01-20T05:08:05;99560.94;;;0.96;92.70
49945;BME280;35838;49.134;9.212;2023-01-20T05:09:39;99568.31;;;0.85;92.96
49945;BME280;35838;49.134;9.212;2023-01-20T05:11:15;99567.25;;;0.78;93.62
49945;BME280;35838;49.134;9.212;2023-01-20T05:12:49;99574.41;;;0.90;93.96
49945;BME280;35838;49.134;9.212;2023-01-20T05:14:23;99570.91;;;0.86;93.69
49945;BME280;35838;49.134;9.212;2023-01-20T05:15:56;99573.41;;;0.85;93.80
49945;BME280;35838;49.134;9.212;2023-01-20T05:17:30;99576.75;;;0.82;93.97
49945;BME280;35838;49.134;9.212;2023-01-20T05:19:04;99576.94;;;0.88;93.67
49945;BME280;35838;49.134;9.212;2023-01-20T05:20:38;99577.84;;;0.90;93.23
49945;BME280;35838;49.134;9.212;2023-01-20T05:22:11;99581.31;;;0.92;92.83
49945;BME280;35838;49.134;9.212;2023-01-20T05:23:45;99582.97;;;0.90;93.01
49945;BME280;35838;49.134;9.212;2023-01-20T05:25:19;99579.38;;;0.85;93.18
49945;BME280;35838;49.134;9.212;2023-01-20T05:26:55;99581.13;;;0.86;92.96
49945;BME280;35838;49.134;9.212;2023-01-20T05:28:32;99587.16;;;0.88;92.97
49945;BME280;35838;49.134;9.212;2023-01-20T05:30:06;99588.00;;;0.89;93.18
49945;BME280;35838;49.134;9.212;2023-01-20T05:31:40;99583.81;;;0.91;92.96
49945;BME280;35838;49.134;9.212;2023-01-20T05:33:15;99599.38;;;0.99;92.62
49945;BME280;35838;49.134;9.212;2023-01-20T05:34:48;99591.72;;;0.99;92.12
49945;BME280;35838;49.134;9.212;2023-01-20T05:36:19;99595.19;;;1.01;92.08
49945;BME280;35838;49.134;9.212;2023-01-20T05:37:53;99592.50;;;0.96;92.04
49945;BME280;35838;49.134;9.212;2023-01-20T05:39:27;99591.72;;;0.99;92.04
49945;BME280;35838;49.134;9.212;2023-01-20T05:41:00;99597.75;;;1.01;92.00
49945;BME280;35838;49.134;9.212;2023-01-20T05:42:38;99599.31;;;0.97;91.96
49945;BME280;35838;49.134;9.212;2023-01-20T05:44:12;99595.94;;;0.98;92.26
49945;BME280;35838;49.134;9.212;2023-01-20T05:45:45;99597.69;;;0.99;92.22
49945;BME280;35838;49.134;9.212;2023-01-20T05:47:19;99597.63;;;0.96;91.93
49945;BME280;35838;49.134;9.212;2023-01-20T05:48:52;99603.53;;;0.95;92.36
49945;BME280;35838;49.134;9.212;2023-01-20T05:50:26;99604.53;;;1.00;92.12
49945;BME280;35838;49.134;9.212;2023-01-20T05:51:57;99602.63;;;0.93;91.45
49945;BME280;35838;49.134;9.212;2023-01-20T05:53:31;99605.41;;;1.01;91.67
49945;BME280;35838;49.134;9.212;2023-01-20T05:55:05;99607.13;;;1.02;91.51
49945;BME280;35838;49.134;9.212;2023-01-20T05:56:38;99607.31;;;1.08;91.40
49945;BME280;35838;49.134;9.212;2023-01-20T05:58:15;99612.44;;;1.08;91.68
49945;BME280;35838;49.134;9.212;2023-01-20T05:59:48;99610.69;;;1.07;91.80
49945;BME280;35838;49.134;9.212;2023-01-20T06:01:22;99614.19;;;1.09;91.92
49945;BME280;35838;49.134;9.212;2023-01-20T06:02:56;99613.97;;;1.03;91.66
49945;BME280;35838;49.134;9.212;2023-01-20T06:04:29;99615.72;;;1.04;91.75
49945;BME280;35838;49.134;9.212;2023-01-20T06:06:04;99610.59;;;1.04;91.80
49945;BME280;35838;49.134;9.212;2023-01-20T06:07:37;99617.44;;;1.05;91.98
49945;BME280;35838;49.134;9.212;2023-01-20T06:09:11;99612.25;;;1.02;91.90
49945;BME280;35838;49.134;9.212;2023-01-20T06:10:45;99620.00;;;1.05;91.43
49945;BME280;35838;49.134;9.212;2023-01-20T06:12:18;99625.88;;;1.01;91.07
49945;BME280;35838;49.134;9.212;2023-01-20T06:13:54;99628.22;;;0.94;91.12
49945;BME280;35838;49.134;9.212;2023-01-20T06:15:28;99620.25;;;0.85;91.30
49945;BME280;35838;49.134;9.212;2023-01-20T06:17:02;99627.03;;;0.83;91.85
49945;BME280;35838;49.134;9.212;2023-01-20T06:18:35;99623.63;;;0.84;92.17
49945;BME280;35838;49.134;9.212;2023-01-20T06:20:09;99636.47;;;0.86;92.07
49945;BME280;35838;49.134;9.212;2023-01-20T06:21:43;99637.25;;;0.83;92.26
49945;BME280;35838;49.134;9.212;2023-01-20T06:23:17;99635.44;;;0.81;92.61
49945;BME280;35838;49.134;9.212;2023-01-20T06:24:50;99642.25;;;0.80;92.93
49945;BME280;35838;49.134;9.212;2023-01-20T06:26:24;99639.72;;;0.80;92.91
49945;BME280;35838;49.134;9.212;2023-01-20T06:27:58;99636.28;;;0.80;92.67
49945;BME280;35838;49.134;9.212;2023-01-20T06:29:35;99650.63;;;0.76;92.81
49945;BME280;35838;49.134;9.212;2023-01-20T06:31:09;99644.38;;;0.66;92.92
49945;BME280;35838;49.134;9.212;2023-01-20T06:32:44;99652.88;;;0.65;93.09
49945;BME280;35838;49.134;9.212;2023-01-20T06:34:18;99655.56;;;0.70;93.36
49945;BME280;35838;49.134;9.212;2023-01-20T06:35:52;99656.34;;;0.67;93.39
49945;BME280;35838;49.134;9.212;2023-01-20T06:37:23;99662.22;;;0.65;93.53
49945;BME280;35838;49.134;9.212;2023-01-20T06:38:56;99656.16;;;0.61;93.38
49945;BME280;35838;49.134;9.212;2023-01-20T06:40:30;99656.53;;;0.46;94.07
49945;BME280;35838;49.134;9.212;2023-01-20T06:42:04;99656.88;;;0.31;94.21
49945;BME280;35838;49.134;9.212;2023-01-20T06:43:37;99662.31;;;0.16;94.66
49945;BME280;35838;49.134;9.212;2023-01-20T06:45:14;99664.19;;;0.20;95.65
49945;BME280;35838;49.134;9.212;2023-01-20T06:46:48;99673.03;;;0.31;95.78
49945;BME280;35838;49.134;9.212;2023-01-20T06:48:22;99670.00;;;0.42;95.68
49945;BME280;35838;49.134;9.212;2023-01-20T06:49:55;99665.63;;;0.38;95.17
49945;BME280;35838;49.134;9.212;2023-01-20T06:51:29;99674.28;;;0.43;95.22
49945;BME280;35838;49.134;9.212;2023-01-20T06:53:03;99671.91;;;0.49;94.96
49945;BME280;35838;49.134;9.212;2023-01-20T06:54:36;99674.47;;;0.49;94.83
49945;BME280;35838;49.134;9.212;2023-01-20T06:56:10;99675.31;;;0.48;94.92
49945;BME280;35838;49.134;9.212;2023-01-20T06:57:44;99679.34;;;0.41;94.64
49945;BME280;35838;49.134;9.212;2023-01-20T06:59:17;99678.69;;;0.47;94.73
49945;BME280;35838;49.134;9.212;2023-01-20T07:00:54;99682.06;;;0.46;94.80
49945;BME280;35838;49.134;9.212;2023-01-20T07:02:28;99685.31;;;0.42;94.75
49945;BME280;35838;49.134;9.212;2023-01-20T07:04:02;99695.69;;;0.46;94.55
49945;BME280;35838;49.134;9.212;2023-01-20T07:05:36;99697.56;;;0.52;94.30
49945;BME280;35838;49.134;9.212;2023-01-20T07:07:10;99694.09;;;0.50;94.05
49945;BME280;35838;49.134;9.212;2023-01-20T07:08:44;99701.88;;;0.53;94.20
49945;BME280;35838;49.134;9.212;2023-01-20T07:10:18;99705.13;;;0.49;94.09
49945;BME280;35838;49.134;9.212;2023-01-20T07:11:52;99702.69;;;0.52;94.08
49945;BME280;35838;49.134;9.212;2023-01-20T07:13:25;99713.50;;;0.45;94.14
49945;BME280;35838;49.134;9.212;2023-01-20T07:14:59;99711.81;;;0.45;94.36
49945;BME280;35838;49.134;9.212;2023-01-20T07:16:35;99715.34;;;0.49;94.36
49945;BME280;35838;49.134;9.212;2023-01-20T07:18:09;99726.00;;;0.37;94.04
49945;BME280;35838;49.134;9.212;2023-01-20T07:19:42;99722.00;;;0.44;94.40
49945;BME280;35838;49.134;9.212;2023-01-20T07:21:16;99729.84;;;0.50;94.28
49945;BME280;35838;49.134;9.212;2023-01-20T07:22:50;99718.13;;;0.55;93.99
49945;BME280;35838;49.134;9.212;2023-01-20T07:24:23;99721.50;;;0.54;93.82
49945;BME280;35838;49.134;9.212;2023-01-20T07:25:57;99728.41;;;0.58;93.48
49945;BME280;35838;49.134;9.212;2023-01-20T07:27:31;99728.41;;;0.58;93.64
49945;BME280;35838;49.134;9.212;2023-01-20T07:29:05;99724.28;;;0.62;93.45
49945;BME280;35838;49.134;9.212;2023-01-20T07:30:38;99735.25;;;0.59;93.31
49945;BME280;35838;49.134;9.212;2023-01-20T07:32:14;99731.69;;;0.54;93.06
49945;BME280;35838;49.134;9.212;2023-01-20T07:33:48;99732.63;;;0.56;92.99
49945;BME280;35838;49.134;9.212;2023-01-20T07:35:22;99741.19;;;0.58;92.84
49945;BME280;35838;49.134;9.212;2023-01-20T07:36:55;99740.38;;;0.59;92.49
49945;BME280;35838;49.134;9.212;2023-01-20T07:38:30;99748.19;;;0.64;92.59
49945;BME280;35838;49.134;9.212;2023-01-20T07:40:06;99740.38;;;0.59;92.36
49945;BME280;35838;49.134;9.212;2023-01-20T07:41:40;99743.84;;;0.61;92.29
49945;BME280;35838;49.134;9.212;2023-01-20T07:43:18;99744.94;;;0.68;92.14
49945;BME280;35838;49.134;9.212;2023-01-20T07:44:51;99743.09;;;0.64;91.78
49945;BME280;35838;49.134;9.212;2023-01-20T07:46:25;99747.41;;;0.67;91.45
49945;BME280;35838;49.134;9.212;2023-01-20T07:48:01;99749.16;;;0.68;91.28
49945;BME280;35838;49.134;9.212;2023-01-20T07:49:36;99749.22;;;0.69;91.31
49945;BME280;35838;49.134;9.212;2023-01-20T07:51:12;99756.13;;;0.72;91.16
49945;BME280;35838;49.134;9.212;2023-01-20T07:52:45;99752.09;;;0.78;90.62
49945;BME280;35838;49.134;9.212;2023-01-20T07:54:19;99756.34;;;0.80;90.56
49945;BME280;35838;49.134;9.212;2023-01-20T07:55:53;99764.78;;;0.77;90.46
49945;BME280;35838;49.134;9.212;2023-01-20T07:57:27;99761.13;;;0.69;90.19
49945;BME280;35838;49.134;9.212;2023-01-20T07:59:00;99759.38;;;0.68;90.53
49945;BME280;35838;49.134;9.212;2023-01-20T08:00:34;99762.59;;;0.62;90.43
49945;BME280;35838;49.134;9.212;2023-01-20T08:02:07;99770.56;;;0.45;91.02
49945;BME280;35838;49.134;9.212;2023-01-20T08:03:49;99768.56;;;0.37;92.49
49945;BME280;35838;49.134;9.212;2023-01-20T08:05:23;99776.47;;;0.44;92.52
49945;BME280;35838;49.134;9.212;2023-01-20T08:06:57;99782.19;;;0.37;92.73
49945;BME280;35838;49.134;9.212;2023-01-20T08:08:30;99782.03;;;0.33;93.04
49945;BME280;35838;49.134;9.212;2023-01-20T08:10:05;99783.75;;;0.34;93.54
49945;BME280;35838;49.134;9.212;2023-01-20T08:11:38;99789.69;;;0.33;93.63
49945;BME280;35838;49.134;9.212;2023-01-20T08:13:12;99797.47;;;0.36;93.76
49945;BME280;35838;49.134;9.212;2023-01-20T08:14:46;99797.56;;;0.39;93.70
49945;BME280;35838;49.134;9.212;2023-01-20T08:16:19;99795.88;;;0.39;93.47
49945;BME280;35838;49.134;9.212;2023-01-20T08:17:53;99799.41;;;0.43;93.31
49945;BME280;35838;49.134;9.212;2023-01-20T08:19:30;99790.16;;;0.46;93.06
49945;BME280;35838;49.134;9.212;2023-01-20T08:21:04;99808.13;;;0.48;92.77
49945;BME280;35838;49.134;9.212;2023-01-20T08:22:38;99801.69;;;0.59;92.32
49945;BME280;35838;49.134;9.212;2023-01-20T08:24:11;99798.31;;;0.60;92.10
49945;BME280;35838;49.134;9.212;2023-01-20T08:25:45;99795.88;;;0.64;91.52
49945;BME280;35838;49.134;9.212;2023-01-20T08:27:19;99805.81;;;0.56;91.12
49945;BME280;35838;49.134;9.212;2023-01-20T08:28:52;99804.84;;;0.52;91.21
49945;BME280;35838;49.134;9.212;2023-01-20T08:30:26;99806.91;;;0.62;90.89
49945;BME280;35838;49.134;9.212;2023-01-20T08:32:00;99808.66;;;0.64;90.41
49945;BME280;35838;49.134;9.212;2023-01-20T08:33:33;99812.22;;;0.69;90.33